F/V Atalante — FVRQ — position and weather

sailwx.info

Track history (hours):
 
Tides and Currents Weather Stations Pressure Air Temp Water Temp Dewpoint Dewpoint Depression Visibility Wind Speed Wind Dir Waves Ship Positions

F/V Atalante

Last reported at 2015-Jun-29 05:33 UTC. Time now 2015-Jul-04 08:28 UTC.
Position N 47°21' W 002°31'.

Length 21 m; draft 3.9 m.

Type: . MMSI: 228854000.

Date/timePositionNaut miles runAvg speedWind from/ knotsBaromVisibWave heightAir tempDewpointWater temp
2015-Jun-29 05:33N 47°21' W 002°31'0 0.0
2015-Jun-29 04:33N 47°21' W 002°31'0 0.0
2015-Jun-29 03:33N 47°21' W 002°31'0 0.0
2015-Jun-29 02:33N 47°21' W 002°31'7 7.2
2015-Jun-29 01:33N 47°19' W 002°41'1010.0
2015-Jun-29 00:33N 47°15' W 002°55'1010.2
2015-Jun-28 23:33N 47°12' W 003°09'1010.0
2015-Jun-28 22:33N 47°09' W 003°23'1010.2
2015-Jun-28 21:33N 47°06' W 003°37'10 9.8
2015-Jun-28 20:34N 47°03' W 003°51'10 9.8
2015-Jun-28 19:31N 46°60' W 004°05'10 9.4
2015-Jun-28 18:27N 46°57' W 004°19'8 9.5
2015-Jun-28 17:33N 46°54' W 004°31'10 9.5
2015-Jun-28 16:34N 46°51' W 004°44'10 9.7
2015-Jun-28 15:32N 46°47' W 004°58'19 9.3
2015-Jun-28 13:31N 46°42' W 005°24'4 2.9
2015-Jun-28 12:18N 46°41' W 005°19'2 0.1
2015-Jun-27 22:14N 46°41' W 005°17'0 0.3
2015-Jun-27 21:13N 46°41' W 005°17'1 0.7
2015-Jun-27 20:16N 46°40' W 005°17'1 1.3
2015-Jun-27 19:32N 46°40' W 005°18'2 2.3
2015-Jun-27 18:28N 46°40' W 005°15'3 1.5
2015-Jun-27 16:27N 46°43' W 005°16'5 3.6
2015-Jun-27 15:12N 46°42' W 005°10'1 1.7
2015-Jun-27 14:34N 46°43' W 005°09'3 2.8
2015-Jun-27 13:33N 46°40' W 005°09'93 5.4
2015-Jun-26 20:22N 47°10' W 002°59'8 9.5
2015-Jun-26 19:31N 47°14' W 002°49'8 8.8
2015-Jun-26 18:33N 47°19' W 002°39'6 0.4
2015-Jun-26 05:30N 47°21' W 002°31'0 0.0
2015-Jun-26 04:33N 47°21' W 002°31'0 0.0
2015-Jun-26 03:34N 47°21' W 002°31'9 9.4
2015-Jun-26 02:33N 47°18' W 002°44'10 9.9
2015-Jun-26 01:33N 47°15' W 002°58'10 9.8
2015-Jun-26 00:33N 47°11' W 003°11'1010.2
2015-Jun-25 23:33N 47°08' W 003°25'1010.4
2015-Jun-25 22:33N 47°04' W 003°40'1110.6
2015-Jun-25 21:33N 47°01' W 003°54'1010.2
2015-Jun-25 20:33N 46°57' W 004°08'1010.3
2015-Jun-25 19:33N 46°53' W 004°23'1010.0
2015-Jun-25 18:32N 46°50' W 004°36'11 9.6
2015-Jun-25 17:23N 46°45' W 004°51'8 9.5
2015-Jun-25 16:33N 46°42' W 005°02'3 3.2
2015-Jun-25 15:29N 46°40' W 005°05'2 2.0
2015-Jun-25 14:32N 46°40' W 005°03'2 1.7
2015-Jun-25 13:33N 46°39' W 005°05'4 2.0
2015-Jun-25 11:32N 46°41' W 004°60'2 1.9
2015-Jun-25 10:30N 46°41' W 004°57'1 1.2
2015-Jun-25 09:33N 46°42' W 004°58'5 4.6
2015-Jun-25 08:32N 46°39' W 004°52'5 5.0
2015-Jun-25 07:33N 46°35' W 004°48'4 1.5
2015-Jun-25 05:04N 46°37' W 004°53'2 4.6
2015-Jun-25 04:33N 46°38' W 004°56'2 0.8
2015-Jun-25 02:33N 46°37' W 004°58'0 0.3
2015-Jun-25 01:23N 46°37' W 004°57'0 0.2
2015-Jun-25 00:29N 46°37' W 004°57'1 0.4
2015-Jun-24 21:28N 46°36' W 004°57'0 0.1
2015-Jun-24 20:29N 46°36' W 004°57'1 0.2
2015-Jun-24 16:32N 46°36' W 004°56'0 0.1
2015-Jun-24 14:32N 46°36' W 004°56'3 2.8
2015-Jun-24 13:32N 46°35' W 004°60'64 4.9
2015-Jun-24 00:31N 46°55' W 003°31'1010.1
2015-Jun-23 23:31N 47°00' W 003°18'9 9.7
2015-Jun-23 22:33N 47°05' W 003°06'10 9.7
2015-Jun-23 21:33N 47°10' W 002°54'9 9.3
2015-Jun-23 20:33N 47°14' W 002°41'10 9.7
2015-Jun-23 19:33N 47°20' W 002°31'7 0.3
2015-Jun-22 19:33N 47°18' W 002°41'1010.0
2015-Jun-22 18:33N 47°13' W 002°53'12 9.9
2015-Jun-22 17:20N 47°06' W 003°08'9 9.4
2015-Jun-22 16:22N 47°01' W 003°19'8 9.5
2015-Jun-22 15:32N 46°56' W 003°28'10 9.7
2015-Jun-22 14:31N 46°51' W 003°40'9 9.5
2015-Jun-22 13:33N 46°47' W 003°52'9 9.4
2015-Jun-22 12:33N 46°43' W 004°05'11 9.3
2015-Jun-22 11:25N 46°37' W 004°18'7 8.7
2015-Jun-22 10:33N 46°33' W 004°27'9 8.9
2015-Jun-22 09:34N 46°28' W 004°38'9 9.3
2015-Jun-22 08:33N 46°23' W 004°49'1 0.4
2015-Jun-22 07:19N 46°23' W 004°50'4 4.6
2015-Jun-22 06:33N 46°21' W 004°45'9 7.9
2015-Jun-22 05:25N 46°20' W 004°32'7 8.1
2015-Jun-22 04:33N 46°18' W 004°23'3 2.8
2015-Jun-22 03:33N 46°15' W 004°21'0 0.2
2015-Jun-22 02:33N 46°16' W 004°21'3 1.3
2015-Jun-22 00:32N 46°15' W 004°25'3 3.5
2015-Jun-21 23:33N 46°15' W 004°30'5 4.5
2015-Jun-21 22:24N 46°15' W 004°37'5 5.4
2015-Jun-21 21:33N 46°15' W 004°44'1 1.0
2015-Jun-21 20:33N 46°14' W 004°43'6 4.2
2015-Jun-21 19:13N 46°19' W 004°40'1 1.9
2015-Jun-21 18:33N 46°20' W 004°41'1 0.6
2015-Jun-21 17:27N 46°19' W 004°40'2 2.3
2015-Jun-21 16:34N 46°19' W 004°37'3 1.3
2015-Jun-21 14:11N 46°22' W 004°39'6 9.8
2015-Jun-21 13:34N 46°19' W 004°31'2 2.4
2015-Jun-21 12:33N 46°20' W 004°28'57 4.4
2015-Jun-20 23:32N 46°49' W 003°16'1110.3
2015-Jun-20 22:28N 46°57' W 003°04'1010.5
2015-Jun-20 21:33N 47°04' W 002°54'1010.4
2015-Jun-20 20:33N 47°10' W 002°43'1010.4
2015-Jun-20 19:33N 47°19' W 002°34'1 0.2
2015-Jun-20 13:33N 47°20' W 002°34'10 9.9
2015-Jun-20 12:33N 47°19' W 002°48'9 9.1
2015-Jun-20 11:33N 47°21' W 003°01'9 9.2
2015-Jun-20 10:33N 47°24' W 003°13'9 9.4
2015-Jun-20 09:33N 47°26' W 003°27'9 9.4
2015-Jun-20 08:33N 47°28' W 003°41'9 9.1
2015-Jun-20 07:33N 47°29' W 003°54'9 8.9
2015-Jun-20 06:33N 47°29' W 004°07'9 8.9
2015-Jun-20 05:33N 47°31' W 004°20'5 5.5
2015-Jun-20 04:33N 47°31' W 004°29'3 2.7
2015-Jun-20 03:33N 47°33' W 004°32'3 3.1
2015-Jun-20 02:33N 47°34' W 004°37'3 3.0
2015-Jun-20 01:33N 47°35' W 004°41'3 3.0
2015-Jun-20 00:33N 47°36' W 004°45'3 3.1
2015-Jun-19 23:33N 47°37' W 004°49'3 2.9
2015-Jun-19 22:28N 47°39' W 004°53'3 3.4
2015-Jun-19 21:27N 47°39' W 004°58'1 0.7
2015-Jun-19 20:33N 47°39' W 004°59'4 3.9
2015-Jun-19 19:25N 47°43' W 005°00'3 3.0
2015-Jun-19 18:33N 47°41' W 005°02'3 1.3
2015-Jun-19 16:27N 47°43' W 005°04'3 3.8
2015-Jun-19 15:34N 47°40' W 005°04'  
Track history (hours):
 
Tides and Currents Weather Stations Pressure Air Temp Water Temp Dewpoint Dewpoint Depression Visibility Wind Speed Wind Dir Waves Ship Positions

F/V Atalante

Last reported at 2015-Jun-29 05:33 UTC. Time now 2015-Jul-04 08:28 UTC.
Position N 47°21' W 002°31'.

Length 21 m; draft 3.9 m.

Type: . MMSI: 228854000.

Date/timePositionNaut miles runAvg speedWind from/ knotsBaromVisibWave heightAir tempDewpointWater temp
2015-Jun-29 05:33N 47°21' W 002°31'0 0.0
2015-Jun-29 04:33N 47°21' W 002°31'0 0.0
2015-Jun-29 03:33N 47°21' W 002°31'0 0.0
2015-Jun-29 02:33N 47°21' W 002°31'7 7.2
2015-Jun-29 01:33N 47°19' W 002°41'1010.0
2015-Jun-29 00:33N 47°15' W 002°55'1010.2
2015-Jun-28 23:33N 47°12' W 003°09'1010.0
2015-Jun-28 22:33N 47°09' W 003°23'1010.2
2015-Jun-28 21:33N 47°06' W 003°37'10 9.8
2015-Jun-28 20:34N 47°03' W 003°51'10 9.8
2015-Jun-28 19:31N 46°60' W 004°05'10 9.4
2015-Jun-28 18:27N 46°57' W 004°19'8 9.5
2015-Jun-28 17:33N 46°54' W 004°31'10 9.5
2015-Jun-28 16:34N 46°51' W 004°44'10 9.7
2015-Jun-28 15:32N 46°47' W 004°58'19 9.3
2015-Jun-28 13:31N 46°42' W 005°24'4 2.9
2015-Jun-28 12:18N 46°41' W 005°19'2 0.1
2015-Jun-27 22:14N 46°41' W 005°17'0 0.3
2015-Jun-27 21:13N 46°41' W 005°17'1 0.7
2015-Jun-27 20:16N 46°40' W 005°17'1 1.3
2015-Jun-27 19:32N 46°40' W 005°18'2 2.3
2015-Jun-27 18:28N 46°40' W 005°15'3 1.5
2015-Jun-27 16:27N 46°43' W 005°16'5 3.6
2015-Jun-27 15:12N 46°42' W 005°10'1 1.7
2015-Jun-27 14:34N 46°43' W 005°09'3 2.8
2015-Jun-27 13:33N 46°40' W 005°09'93 5.4
2015-Jun-26 20:22N 47°10' W 002°59'8 9.5
2015-Jun-26 19:31N 47°14' W 002°49'8 8.8
2015-Jun-26 18:33N 47°19' W 002°39'6 0.4
2015-Jun-26 05:30N 47°21' W 002°31'0 0.0
2015-Jun-26 04:33N 47°21' W 002°31'0 0.0
2015-Jun-26 03:34N 47°21' W 002°31'9 9.4
2015-Jun-26 02:33N 47°18' W 002°44'10 9.9
2015-Jun-26 01:33N 47°15' W 002°58'10 9.8
2015-Jun-26 00:33N 47°11' W 003°11'1010.2
2015-Jun-25 23:33N 47°08' W 003°25'1010.4
2015-Jun-25 22:33N 47°04' W 003°40'1110.6
2015-Jun-25 21:33N 47°01' W 003°54'1010.2
2015-Jun-25 20:33N 46°57' W 004°08'1010.3
2015-Jun-25 19:33N 46°53' W 004°23'1010.0
2015-Jun-25 18:32N 46°50' W 004°36'11 9.6
2015-Jun-25 17:23N 46°45' W 004°51'8 9.5
2015-Jun-25 16:33N 46°42' W 005°02'3 3.2
2015-Jun-25 15:29N 46°40' W 005°05'2 2.0
2015-Jun-25 14:32N 46°40' W 005°03'2 1.7
2015-Jun-25 13:33N 46°39' W 005°05'4 2.0
2015-Jun-25 11:32N 46°41' W 004°60'2 1.9
2015-Jun-25 10:30N 46°41' W 004°57'1 1.2
2015-Jun-25 09:33N 46°42' W 004°58'5 4.6
2015-Jun-25 08:32N 46°39' W 004°52'5 5.0
2015-Jun-25 07:33N 46°35' W 004°48'4 1.5
2015-Jun-25 05:04N 46°37' W 004°53'2 4.6
2015-Jun-25 04:33N 46°38' W 004°56'2 0.8
2015-Jun-25 02:33N 46°37' W 004°58'0 0.3
2015-Jun-25 01:23N 46°37' W 004°57'0 0.2
2015-Jun-25 00:29N 46°37' W 004°57'1 0.4
2015-Jun-24 21:28N 46°36' W 004°57'0 0.1
2015-Jun-24 20:29N 46°36' W 004°57'1 0.2
2015-Jun-24 16:32N 46°36' W 004°56'0 0.1
2015-Jun-24 14:32N 46°36' W 004°56'3 2.8
2015-Jun-24 13:32N 46°35' W 004°60'64 4.9
2015-Jun-24 00:31N 46°55' W 003°31'1010.1
2015-Jun-23 23:31N 47°00' W 003°18'9 9.7
2015-Jun-23 22:33N 47°05' W 003°06'10 9.7
2015-Jun-23 21:33N 47°10' W 002°54'9 9.3
2015-Jun-23 20:33N 47°14' W 002°41'10 9.7
2015-Jun-23 19:33N 47°20' W 002°31'7 0.3
2015-Jun-22 19:33N 47°18' W 002°41'1010.0
2015-Jun-22 18:33N 47°13' W 002°53'12 9.9
2015-Jun-22 17:20N 47°06' W 003°08'9 9.4
2015-Jun-22 16:22N 47°01' W 003°19'8 9.5
2015-Jun-22 15:32N 46°56' W 003°28'10 9.7
2015-Jun-22 14:31N 46°51' W 003°40'9 9.5
2015-Jun-22 13:33N 46°47' W 003°52'9 9.4
2015-Jun-22 12:33N 46°43' W 004°05'11 9.3
2015-Jun-22 11:25N 46°37' W 004°18'7 8.7
2015-Jun-22 10:33N 46°33' W 004°27'9 8.9
2015-Jun-22 09:34N 46°28' W 004°38'9 9.3
2015-Jun-22 08:33N 46°23' W 004°49'1 0.4
2015-Jun-22 07:19N 46°23' W 004°50'4 4.6
2015-Jun-22 06:33N 46°21' W 004°45'9 7.9
2015-Jun-22 05:25N 46°20' W 004°32'7 8.1
2015-Jun-22 04:33N 46°18' W 004°23'3 2.8
2015-Jun-22 03:33N 46°15' W 004°21'0 0.2
2015-Jun-22 02:33N 46°16' W 004°21'3 1.3
2015-Jun-22 00:32N 46°15' W 004°25'3 3.5
2015-Jun-21 23:33N 46°15' W 004°30'5 4.5
2015-Jun-21 22:24N 46°15' W 004°37'5 5.4
2015-Jun-21 21:33N 46°15' W 004°44'1 1.0
2015-Jun-21 20:33N 46°14' W 004°43'6 4.2
2015-Jun-21 19:13N 46°19' W 004°40'1 1.9
2015-Jun-21 18:33N 46°20' W 004°41'1 0.6
2015-Jun-21 17:27N 46°19' W 004°40'2 2.3
2015-Jun-21 16:34N 46°19' W 004°37'3 1.3
2015-Jun-21 14:11N 46°22' W 004°39'6 9.8
2015-Jun-21 13:34N 46°19' W 004°31'2 2.4
2015-Jun-21 12:33N 46°20' W 004°28'57 4.4
2015-Jun-20 23:32N 46°49' W 003°16'1110.3
2015-Jun-20 22:28N 46°57' W 003°04'1010.5
2015-Jun-20 21:33N 47°04' W 002°54'1010.4
2015-Jun-20 20:33N 47°10' W 002°43'1010.4
2015-Jun-20 19:33N 47°19' W 002°34'1 0.2
2015-Jun-20 13:33N 47°20' W 002°34'10 9.9
2015-Jun-20 12:33N 47°19' W 002°48'9 9.1
2015-Jun-20 11:33N 47°21' W 003°01'9 9.2
2015-Jun-20 10:33N 47°24' W 003°13'9 9.4
2015-Jun-20 09:33N 47°26' W 003°27'9 9.4
2015-Jun-20 08:33N 47°28' W 003°41'9 9.1
2015-Jun-20 07:33N 47°29' W 003°54'9 8.9
2015-Jun-20 06:33N 47°29' W 004°07'9 8.9
2015-Jun-20 05:33N 47°31' W 004°20'5 5.5
2015-Jun-20 04:33N 47°31' W 004°29'3 2.7
2015-Jun-20 03:33N 47°33' W 004°32'3 3.1
2015-Jun-20 02:33N 47°34' W 004°37'3 3.0
2015-Jun-20 01:33N 47°35' W 004°41'3 3.0
2015-Jun-20 00:33N 47°36' W 004°45'3 3.1
2015-Jun-19 23:33N 47°37' W 004°49'3 2.9
2015-Jun-19 22:28N 47°39' W 004°53'3 3.4
2015-Jun-19 21:27N 47°39' W 004°58'1 0.7
2015-Jun-19 20:33N 47°39' W 004°59'4 3.9
2015-Jun-19 19:25N 47°43' W 005°00'3 3.0
2015-Jun-19 18:33N 47°41' W 005°02'3 1.3
2015-Jun-19 16:27N 47°43' W 005°04'3 3.8
2015-Jun-19 15:34N 47°40' W 005°04'  

Dump ship's entire track history